createdAt,value
2018-12-16T00:00:56.207Z,-2.20
2018-12-16T00:03:22.962Z,-2.20
2018-12-16T00:05:49.699Z,-2.20
2018-12-16T00:08:16.440Z,-2.20
2018-12-16T00:10:43.169Z,-2.20
2018-12-16T00:13:09.918Z,-2.20
2018-12-16T00:15:36.656Z,-2.20
2018-12-16T00:18:03.398Z,-2.20
2018-12-16T00:20:30.114Z,-2.10
2018-12-16T00:22:57.114Z,-2.10
2018-12-16T00:25:24.043Z,-2.10
2018-12-16T00:27:50.801Z,-2.10
2018-12-16T00:30:17.538Z,-2.10
2018-12-16T00:32:44.290Z,-2.10
2018-12-16T00:35:11.150Z,-2.10
2018-12-16T00:37:37.898Z,-2.00
2018-12-16T00:40:04.905Z,-2.00
2018-12-16T00:42:31.648Z,-2.00
2018-12-16T00:44:58.414Z,-2.00
2018-12-16T00:47:25.142Z,-2.00
2018-12-16T00:49:51.926Z,-2.00
2018-12-16T00:52:18.710Z,-2.00
2018-12-16T00:54:45.465Z,-2.00
2018-12-16T00:57:12.188Z,-2.00
2018-12-16T00:59:38.967Z,-2.00
2018-12-16T01:02:10.330Z,-2.00
2018-12-16T01:04:37.079Z,-2.00
2018-12-16T01:07:03.795Z,-2.00
2018-12-16T01:09:30.552Z,-2.00
2018-12-16T01:11:57.277Z,-2.00
2018-12-16T01:14:24.030Z,-2.00
2018-12-16T01:16:50.911Z,-2.00
2018-12-16T01:19:17.675Z,-2.00
2018-12-16T01:21:44.394Z,-2.00
2018-12-16T01:24:11.138Z,-2.00
2018-12-16T01:26:37.878Z,-2.00
2018-12-16T01:29:04.631Z,-2.00
2018-12-16T01:31:31.363Z,-2.00
2018-12-16T01:33:58.205Z,-2.00
2018-12-16T01:36:24.994Z,-2.00
2018-12-16T01:38:51.766Z,-2.00
2018-12-16T01:41:18.495Z,-2.00
2018-12-16T01:43:45.249Z,-2.10
2018-12-16T01:46:11.970Z,-2.00
2018-12-16T01:48:38.822Z,-2.10
2018-12-16T01:51:05.577Z,-2.00
2018-12-16T01:53:32.326Z,-2.10
2018-12-16T01:55:59.249Z,-2.10
2018-12-16T01:58:26.009Z,-2.10
2018-12-16T02:00:52.761Z,-2.10
2018-12-16T02:03:19.505Z,-2.10
2018-12-16T02:05:47.027Z,-2.10
2018-12-16T02:08:13.796Z,-2.10
2018-12-16T02:10:40.593Z,-2.10
2018-12-16T02:13:07.314Z,-2.10
2018-12-16T02:15:34.049Z,-2.10
2018-12-16T02:18:00.767Z,-2.10
2018-12-16T02:20:27.518Z,-2.10
2018-12-16T02:22:57.003Z,-2.10
2018-12-16T02:25:23.122Z,-2.10
2018-12-16T02:27:49.842Z,-2.10
2018-12-16T02:30:22.478Z,-2.10
2018-12-16T02:32:49.602Z,-2.10
2018-12-16T02:35:16.356Z,-2.10
2018-12-16T02:37:43.090Z,-2.00
2018-12-16T02:40:09.825Z,-2.10
2018-12-16T02:42:37.233Z,-2.10
2018-12-16T02:45:04.274Z,-2.10
2018-12-16T02:47:30.999Z,-2.00
2018-12-16T02:49:57.779Z,-2.00
2018-12-16T02:52:24.502Z,-2.00
2018-12-16T02:54:51.255Z,-2.00
2018-12-16T02:57:17.986Z,-2.10
2018-12-16T02:59:44.751Z,-2.10
2018-12-16T03:02:11.463Z,-2.10
2018-12-16T03:04:38.211Z,-2.10
2018-12-16T03:07:04.935Z,-2.10
2018-12-16T03:09:31.696Z,-2.10
2018-12-16T03:11:58.446Z,-2.10
2018-12-16T03:14:25.182Z,-2.10
2018-12-16T03:16:51.899Z,-2.10
2018-12-16T03:19:19.030Z,-2.10
2018-12-16T03:21:45.722Z,-2.10
2018-12-16T03:24:12.447Z,-2.10
2018-12-16T03:26:39.171Z,-2.20
2018-12-16T03:29:05.998Z,-2.20
2018-12-16T03:31:32.722Z,-2.20
2018-12-16T03:33:59.460Z,-2.20
2018-12-16T03:36:26.166Z,-2.20
2018-12-16T03:38:52.889Z,-2.20
2018-12-16T03:41:19.585Z,-2.20
2018-12-16T03:43:46.315Z,-2.20
2018-12-16T03:46:13.018Z,-2.30
2018-12-16T03:48:39.747Z,-2.30
2018-12-16T03:51:06.475Z,-2.30
2018-12-16T03:53:33.183Z,-2.40
2018-12-16T03:55:59.908Z,-2.50
2018-12-16T03:58:26.611Z,-2.60
2018-12-16T04:00:53.354Z,-2.70
2018-12-16T04:03:20.076Z,-2.70
2018-12-16T04:05:46.807Z,-2.70
2018-12-16T04:08:13.503Z,-2.80
2018-12-16T04:10:40.234Z,-2.80
2018-12-16T04:13:08.059Z,-2.90
2018-12-16T04:15:34.791Z,-2.90
2018-12-16T04:18:01.490Z,-3.00
2018-12-16T04:20:28.224Z,-3.00
2018-12-16T04:22:54.962Z,-3.00
2018-12-16T04:25:22.399Z,-3.00
2018-12-16T04:27:49.101Z,-3.00
2018-12-16T04:30:15.834Z,-3.00
2018-12-16T04:32:42.538Z,-3.00
2018-12-16T04:35:09.274Z,-3.00
2018-12-16T04:37:35.970Z,-2.90
2018-12-16T04:40:02.919Z,-2.90
2018-12-16T04:42:29.623Z,-2.80
2018-12-16T04:44:56.350Z,-2.80
2018-12-16T04:47:23.082Z,-2.90
2018-12-16T04:49:49.804Z,-2.90
2018-12-16T04:52:16.536Z,-2.90
2018-12-16T04:54:43.259Z,-2.90
2018-12-16T04:57:09.960Z,-2.90
2018-12-16T04:59:36.689Z,-2.90
2018-12-16T05:02:03.391Z,-2.90
2018-12-16T05:04:30.113Z,-2.90
2018-12-16T05:06:56.814Z,-3.00
2018-12-16T05:09:23.643Z,-3.00
2018-12-16T05:11:50.335Z,-3.00
2018-12-16T05:14:17.562Z,-3.00
2018-12-16T05:16:44.263Z,-3.00
2018-12-16T05:19:10.959Z,-3.00
2018-12-16T05:21:37.693Z,-3.00
2018-12-16T05:24:04.394Z,-3.00
2018-12-16T05:26:31.118Z,-3.00
2018-12-16T05:28:57.838Z,-3.00
2018-12-16T05:31:24.562Z,-3.10
2018-12-16T05:33:51.260Z,-3.10
2018-12-16T05:36:17.991Z,-3.00
2018-12-16T05:38:44.702Z,-3.10
2018-12-16T05:41:11.422Z,-3.00
2018-12-16T05:43:38.118Z,-3.00
2018-12-16T05:46:05.050Z,-3.00
2018-12-16T05:48:31.755Z,-3.00
2018-12-16T05:50:58.485Z,-3.00
2018-12-16T05:53:25.181Z,-3.00
2018-12-16T05:55:51.909Z,-3.00
2018-12-16T05:58:18.603Z,-3.00
2018-12-16T06:00:52.386Z,-3.00
2018-12-16T06:03:19.123Z,-3.00
2018-12-16T06:05:45.850Z,-3.00
2018-12-16T06:08:12.542Z,-3.00
2018-12-16T06:10:39.276Z,-2.90
2018-12-16T06:13:05.975Z,-2.90
2018-12-16T06:15:32.707Z,-2.90
2018-12-16T06:17:59.403Z,-2.90
2018-12-16T06:20:26.130Z,-3.00
2018-12-16T06:22:52.830Z,-3.00
2018-12-16T06:25:19.561Z,-3.00
2018-12-16T06:27:46.271Z,-3.00
2018-12-16T06:30:13.319Z,-3.00
2018-12-16T06:32:40.015Z,-3.00
2018-12-16T06:35:06.738Z,-3.00
2018-12-16T06:37:33.438Z,-3.00
2018-12-16T06:40:00.167Z,-3.00
2018-12-16T06:42:27.014Z,-3.00
2018-12-16T06:44:53.817Z,-3.00
2018-12-16T06:47:20.594Z,-3.00
2018-12-16T06:49:47.322Z,-3.00
2018-12-16T06:52:14.033Z,-3.00
2018-12-16T06:54:40.799Z,-3.00
2018-12-16T06:57:07.498Z,-3.00
2018-12-16T06:59:34.203Z,-3.00
2018-12-16T07:02:00.935Z,-3.00
2018-12-16T07:04:27.954Z,-3.00
2018-12-16T07:06:54.682Z,-2.90
2018-12-16T07:09:21.714Z,-2.90
2018-12-16T07:11:48.448Z,-2.90
2018-12-16T07:14:15.183Z,-2.90
2018-12-16T07:16:41.941Z,-2.90
2018-12-16T07:19:08.733Z,-2.90
2018-12-16T07:21:35.586Z,-2.90
2018-12-16T07:24:09.037Z,-2.90
2018-12-16T07:26:31.035Z,-2.80
2018-12-16T07:28:57.736Z,-2.90
2018-12-16T07:31:24.476Z,-2.80
2018-12-16T07:33:51.555Z,-2.80
2018-12-16T07:36:18.364Z,-2.80
2018-12-16T07:38:45.087Z,-2.80
2018-12-16T07:41:11.959Z,-2.70
2018-12-16T07:43:38.671Z,-2.70
2018-12-16T07:46:05.394Z,-2.70
2018-12-16T07:48:32.103Z,-2.60
2018-12-16T07:50:58.839Z,-2.60
2018-12-16T07:53:25.541Z,-2.60
2018-12-16T07:55:52.266Z,-2.60
2018-12-16T07:58:18.973Z,-2.60
2018-12-16T08:03:18.390Z,-2.60
2018-12-16T08:05:45.184Z,-2.60
2018-12-16T08:08:11.966Z,-2.60
2018-12-16T08:10:38.698Z,-2.60
2018-12-16T08:13:05.395Z,-2.50
2018-12-16T08:15:32.154Z,-2.50
2018-12-16T08:17:58.856Z,-2.50
2018-12-16T08:20:25.586Z,-2.40
2018-12-16T08:22:52.445Z,-2.40
2018-12-16T08:25:19.270Z,-2.30
2018-12-16T08:27:46.073Z,-2.30
2018-12-16T08:30:12.830Z,-2.20
2018-12-16T08:32:39.547Z,-2.10
2018-12-16T08:35:06.243Z,-2.10
2018-12-16T08:37:33.030Z,-2.00
2018-12-16T08:39:59.730Z,-1.90
2018-12-16T08:42:26.454Z,-1.90
2018-12-16T08:44:53.163Z,-1.90
2018-12-16T08:47:19.943Z,-1.90
2018-12-16T08:49:46.658Z,-1.80
2018-12-16T08:52:13.390Z,-1.80
2018-12-16T08:54:40.095Z,-1.80
2018-12-16T08:57:06.830Z,-1.80
2018-12-16T08:59:33.553Z,-1.70
2018-12-16T09:02:00.287Z,-1.80
2018-12-16T09:04:27.513Z,-1.70
2018-12-16T09:06:54.354Z,-1.60
2018-12-16T09:09:21.390Z,-1.50
2018-12-16T09:11:48.130Z,-1.20
2018-12-16T09:14:14.844Z,-1.10
2018-12-16T09:16:41.583Z,-1.00
2018-12-16T09:19:08.294Z,-0.90
2018-12-16T09:21:35.034Z,-0.70
2018-12-16T09:24:01.747Z,-0.70
2018-12-16T09:26:29.444Z,-0.60
2018-12-16T09:28:56.151Z,-0.60
2018-12-16T09:31:22.892Z,-0.70
2018-12-16T09:33:49.623Z,-0.70
2018-12-16T09:36:16.374Z,-0.80
2018-12-16T09:38:43.078Z,-0.80
2018-12-16T09:41:09.819Z,-0.70
2018-12-16T09:43:37.047Z,-0.60
2018-12-16T09:46:03.791Z,-0.50
2018-12-16T09:48:30.546Z,-0.70
2018-12-16T09:50:57.363Z,-0.60
2018-12-16T09:53:24.102Z,-0.30
2018-12-16T09:55:50.878Z,0.10
2018-12-16T09:58:17.622Z,0.10
2018-12-16T10:00:44.359Z,0.20
2018-12-16T10:03:14.082Z,0.20
2018-12-16T10:05:40.839Z,-0.10
2018-12-16T10:08:07.558Z,-0.40
2018-12-16T10:10:34.303Z,-0.50
2018-12-16T10:13:01.011Z,-0.60
2018-12-16T10:15:29.188Z,-0.50
2018-12-16T10:17:56.170Z,-0.40
2018-12-16T10:20:22.910Z,-0.20
2018-12-16T10:22:49.623Z,0.00
2018-12-16T10:25:16.354Z,0.20
2018-12-16T10:27:43.059Z,0.30
2018-12-16T10:30:09.797Z,0.20
2018-12-16T10:32:36.498Z,0.30
2018-12-16T10:35:03.290Z,0.40
2018-12-16T10:37:30.080Z,0.50
2018-12-16T10:39:56.829Z,0.40
2018-12-16T10:42:23.695Z,0.40
2018-12-16T10:44:50.480Z,0.30
2018-12-16T10:47:17.264Z,0.30
2018-12-16T10:49:44.010Z,0.40
2018-12-16T10:52:10.718Z,0.20
2018-12-16T10:54:37.455Z,0.20
2018-12-16T10:57:04.168Z,0.00
2018-12-16T10:59:31.010Z,0.00
2018-12-16T11:01:57.711Z,0.00
2018-12-16T11:04:24.498Z,-0.10
2018-12-16T11:06:51.203Z,0.00
2018-12-16T11:09:17.947Z,0.10
2018-12-16T11:11:44.646Z,0.50
2018-12-16T11:14:11.381Z,1.30
2018-12-16T11:16:38.088Z,1.70
2018-12-16T11:19:04.790Z,2.20
2018-12-16T11:21:31.518Z,3.60
2018-12-16T11:23:58.420Z,4.60
2018-12-16T11:26:25.142Z,4.60
2018-12-16T11:28:51.938Z,4.20
2018-12-16T11:31:18.714Z,3.40
2018-12-16T11:33:45.533Z,2.60
2018-12-16T11:36:12.290Z,1.70
2018-12-16T11:38:38.996Z,1.10
2018-12-16T11:41:05.731Z,0.50
2018-12-16T11:43:32.435Z,0.20
2018-12-16T11:45:59.179Z,0.00
2018-12-16T11:48:25.887Z,-0.20
2018-12-16T11:50:52.618Z,-0.30
2018-12-16T11:53:19.355Z,-0.30
2018-12-16T11:55:46.214Z,-0.40
2018-12-16T11:58:13.007Z,-0.40
2018-12-16T12:00:40.046Z,-0.40
2018-12-16T12:03:06.747Z,-0.50
2018-12-16T12:05:33.478Z,-0.40
2018-12-16T12:08:00.192Z,-0.40
2018-12-16T12:10:26.918Z,-0.40
2018-12-16T12:12:53.618Z,-0.30
2018-12-16T12:15:20.366Z,-0.30
2018-12-16T12:17:47.079Z,-0.30
2018-12-16T12:20:13.810Z,-0.40
2018-12-16T12:22:40.643Z,-0.40
2018-12-16T12:25:07.383Z,-0.40
2018-12-16T12:27:34.102Z,-0.40
2018-12-16T12:30:00.822Z,-0.40
2018-12-16T12:32:27.534Z,-0.40
2018-12-16T12:34:54.267Z,-0.40
2018-12-16T12:37:21.038Z,-0.50
2018-12-16T12:39:47.787Z,-0.50
2018-12-16T12:42:14.515Z,-0.50
2018-12-16T12:44:41.230Z,-0.50
2018-12-16T12:47:07.960Z,-0.50
2018-12-16T12:49:34.672Z,-0.60
2018-12-16T12:52:01.418Z,-0.60
2018-12-16T12:54:28.129Z,-0.60
2018-12-16T12:56:54.842Z,-0.60
2018-12-16T12:59:21.546Z,-0.50
2018-12-16T13:01:48.265Z,-0.50
2018-12-16T13:04:14.974Z,-0.60
2018-12-16T13:06:41.727Z,-0.70
2018-12-16T13:09:15.280Z,-0.70
2018-12-16T13:11:41.998Z,-0.70
2018-12-16T13:14:08.702Z,-0.70
2018-12-16T13:16:35.402Z,-0.70
2018-12-16T13:19:02.247Z,-0.70
2018-12-16T13:21:28.951Z,-0.70
2018-12-16T13:23:55.677Z,-0.80
2018-12-16T13:26:22.494Z,-0.80
2018-12-16T13:28:49.202Z,-0.80
2018-12-16T13:31:15.907Z,-0.70
2018-12-16T13:33:42.631Z,-0.70
2018-12-16T13:36:09.755Z,-0.70
2018-12-16T13:38:36.475Z,-0.70
2018-12-16T13:41:03.191Z,-0.70
2018-12-16T13:43:29.902Z,-0.70
2018-12-16T13:45:56.906Z,-0.70
2018-12-16T13:48:23.627Z,-0.70
2018-12-16T13:50:50.317Z,-0.70
2018-12-16T13:53:17.036Z,-0.70
2018-12-16T13:55:43.867Z,-0.70
2018-12-16T13:58:10.573Z,-0.70
2018-12-16T14:00:37.274Z,-0.70
2018-12-16T14:03:04.178Z,-0.80
2018-12-16T14:05:31.007Z,-0.90
2018-12-16T14:07:57.732Z,-0.90
2018-12-16T14:10:24.459Z,-1.00
2018-12-16T14:12:51.171Z,-1.10
2018-12-16T14:15:17.884Z,-1.10
2018-12-16T14:17:45.711Z,-1.20
2018-12-16T14:20:12.647Z,-1.20
2018-12-16T14:22:39.351Z,-1.20
2018-12-16T14:25:06.074Z,-1.30
2018-12-16T14:27:32.799Z,-1.30
2018-12-16T14:29:59.535Z,-1.30
2018-12-16T14:32:26.285Z,-1.40
2018-12-16T14:34:53.007Z,-1.40
2018-12-16T14:37:19.915Z,-1.40
2018-12-16T14:39:46.626Z,-1.50
2018-12-16T14:42:13.346Z,-1.50
2018-12-16T14:44:40.047Z,-1.50
2018-12-16T14:47:06.758Z,-1.50
2018-12-16T14:49:33.454Z,-1.50
2018-12-16T14:52:00.169Z,-1.50
2018-12-16T14:54:26.870Z,-1.60
2018-12-16T14:56:53.578Z,-1.60
2018-12-16T14:59:20.286Z,-1.70
2018-12-16T15:01:47.025Z,-1.70
2018-12-16T15:04:13.713Z,-1.70
2018-12-16T15:06:40.639Z,-1.70
2018-12-16T15:09:07.346Z,-1.70
2018-12-16T15:11:34.046Z,-1.70
2018-12-16T15:14:00.752Z,-1.80
2018-12-16T15:16:27.466Z,-1.80
2018-12-16T15:18:54.263Z,-1.80
2018-12-16T15:21:21.011Z,-1.70
2018-12-16T15:23:47.706Z,-1.80
2018-12-16T15:26:14.422Z,-1.80
2018-12-16T15:28:41.113Z,-1.80
2018-12-16T15:31:07.822Z,-1.80
2018-12-16T15:33:34.526Z,-1.80
2018-12-16T15:36:01.255Z,-1.80
2018-12-16T15:38:29.051Z,-1.80
2018-12-16T15:40:55.747Z,-1.90
2018-12-16T15:43:22.559Z,-1.90
2018-12-16T15:45:49.278Z,-1.90
2018-12-16T15:48:15.995Z,-1.90
2018-12-16T15:50:42.807Z,-1.90
2018-12-16T15:53:09.528Z,-1.90
2018-12-16T15:55:36.221Z,-1.90
2018-12-16T15:58:09.850Z,-1.90
2018-12-16T16:00:36.541Z,-1.90
2018-12-16T16:03:03.256Z,-1.90
2018-12-16T16:05:29.950Z,-1.90
2018-12-16T16:07:56.670Z,-1.90
2018-12-16T16:10:23.381Z,-1.90
2018-12-16T16:12:50.087Z,-1.90
2018-12-16T16:15:16.805Z,-1.90
2018-12-16T16:17:43.639Z,-1.90
2018-12-16T16:20:10.347Z,-2.00
2018-12-16T16:22:37.058Z,-2.00
2018-12-16T16:25:03.914Z,-2.00
2018-12-16T16:27:30.626Z,-2.00
2018-12-16T16:29:57.322Z,-2.00
2018-12-16T16:32:24.150Z,-2.00
2018-12-16T16:34:50.862Z,-1.90
2018-12-16T16:37:17.578Z,-1.90
2018-12-16T16:39:44.282Z,-1.90
2018-12-16T16:42:11.002Z,-1.90
2018-12-16T16:44:37.697Z,-1.90
2018-12-16T16:47:04.399Z,-1.90
2018-12-16T16:49:31.219Z,-1.90
2018-12-16T16:51:57.906Z,-1.90
2018-12-16T16:54:24.622Z,-1.90
2018-12-16T16:56:51.323Z,-1.90
2018-12-16T16:59:18.030Z,-1.90
2018-12-16T17:01:44.734Z,-1.90
2018-12-16T17:04:11.535Z,-1.90
2018-12-16T17:06:38.369Z,-1.90
2018-12-16T17:09:06.079Z,-2.00
2018-12-16T17:11:32.900Z,-2.00
2018-12-16T17:13:59.644Z,-1.90
2018-12-16T17:16:26.347Z,-2.00
2018-12-16T17:18:53.179Z,-2.00
2018-12-16T17:21:19.890Z,-2.00
2018-12-16T17:23:46.905Z,-2.00
2018-12-16T17:26:13.602Z,-2.00
2018-12-16T17:28:40.309Z,-2.00
2018-12-16T17:31:07.011Z,-2.00
2018-12-16T17:33:33.722Z,-2.00
2018-12-16T17:36:00.419Z,-2.10
2018-12-16T17:38:27.130Z,-2.10
2018-12-16T17:40:53.939Z,-2.10
2018-12-16T17:43:20.686Z,-2.10
2018-12-16T17:45:47.404Z,-2.10
2018-12-16T17:48:14.123Z,-2.10
2018-12-16T17:50:40.826Z,-2.10
2018-12-16T17:53:07.531Z,-2.10
2018-12-16T17:55:34.242Z,-2.10
2018-12-16T17:58:00.938Z,-2.10
2018-12-16T18:00:27.650Z,-2.10
2018-12-16T18:02:54.375Z,-2.00
2018-12-16T18:05:21.082Z,-2.00
2018-12-16T18:07:47.787Z,-2.00
2018-12-16T18:10:14.502Z,-2.00
2018-12-16T18:12:41.203Z,-2.00
2018-12-16T18:15:07.924Z,-2.00
2018-12-16T18:17:34.614Z,-2.00
2018-12-16T18:20:01.419Z,-2.00
2018-12-16T18:22:28.235Z,-2.00
2018-12-16T18:24:54.942Z,-2.00
2018-12-16T18:27:21.647Z,-2.00
2018-12-16T18:29:48.358Z,-2.00
2018-12-16T18:32:15.050Z,-2.10
2018-12-16T18:34:41.755Z,-2.10
2018-12-16T18:37:08.954Z,-2.10
2018-12-16T18:39:35.758Z,-2.10
2018-12-16T18:42:03.081Z,-2.10
2018-12-16T18:44:29.791Z,-2.10
2018-12-16T18:46:56.496Z,-2.10
2018-12-16T18:49:23.215Z,-2.00
2018-12-16T18:51:49.914Z,-2.10
2018-12-16T18:54:16.610Z,-2.00
2018-12-16T18:56:43.322Z,-2.10
2018-12-16T18:59:10.022Z,-2.10
2018-12-16T19:01:36.733Z,-2.10
2018-12-16T19:04:03.442Z,-2.10
2018-12-16T19:06:30.286Z,-2.10
2018-12-16T19:08:56.986Z,-2.10
2018-12-16T19:11:23.694Z,-2.10
2018-12-16T19:13:50.389Z,-2.10
2018-12-16T19:16:17.097Z,-2.10
2018-12-16T19:18:44.022Z,-2.10
2018-12-16T19:21:10.738Z,-2.10
2018-12-16T19:23:37.445Z,-2.10
2018-12-16T19:26:04.159Z,-2.10
2018-12-16T19:28:30.865Z,-2.10
2018-12-16T19:30:57.582Z,-2.10
2018-12-16T19:33:24.282Z,-2.10
2018-12-16T19:35:51.019Z,-2.10
2018-12-16T19:38:17.715Z,-2.10
2018-12-16T19:40:44.431Z,-2.10
2018-12-16T19:43:11.134Z,-2.00
2018-12-16T19:45:37.843Z,-2.10
2018-12-16T19:48:04.559Z,-2.10
2018-12-16T19:50:31.359Z,-2.10
2018-12-16T19:52:58.072Z,-2.10
2018-12-16T19:55:25.094Z,-2.10
2018-12-16T19:57:51.947Z,-2.10
2018-12-16T20:00:18.653Z,-2.10
2018-12-16T20:02:45.368Z,-2.10
2018-12-16T20:05:18.059Z,-2.10
2018-12-16T20:07:44.898Z,-2.10
2018-12-16T20:10:11.606Z,-2.00
2018-12-16T20:12:38.306Z,-2.00
2018-12-16T20:15:05.226Z,-2.00
2018-12-16T20:17:31.938Z,-2.00
2018-12-16T20:19:58.641Z,-2.00
2018-12-16T20:22:25.371Z,-2.00
2018-12-16T20:24:52.070Z,-2.00
2018-12-16T20:27:18.791Z,-2.00
2018-12-16T20:29:45.509Z,-2.00
2018-12-16T20:32:12.318Z,-2.00
2018-12-16T20:34:39.019Z,-2.00
2018-12-16T20:37:05.731Z,-2.00
2018-12-16T20:39:32.434Z,-2.00
2018-12-16T20:41:59.159Z,-2.00
2018-12-16T20:44:25.854Z,-2.00
2018-12-16T20:46:52.650Z,-2.00
2018-12-16T20:49:19.392Z,-2.00
2018-12-16T20:51:46.094Z,-2.00
2018-12-16T20:54:12.787Z,-2.00
2018-12-16T20:56:39.786Z,-2.00
2018-12-16T20:59:06.477Z,-2.00
2018-12-16T21:01:33.179Z,-2.00
2018-12-16T21:03:59.898Z,-2.00
2018-12-16T21:06:26.594Z,-2.00
2018-12-16T21:08:53.306Z,-2.00
2018-12-16T21:11:25.942Z,-2.00
2018-12-16T21:13:58.491Z,-2.00
2018-12-16T21:16:31.043Z,-2.00
2018-12-16T21:18:57.755Z,-2.00
2018-12-16T21:21:24.542Z,-2.00
2018-12-16T21:23:51.383Z,-2.00
2018-12-16T21:26:18.069Z,-2.00
2018-12-16T21:28:44.786Z,-2.00
2018-12-16T21:31:11.495Z,-2.00
2018-12-16T21:33:38.201Z,-2.00
2018-12-16T21:36:04.901Z,-2.00
2018-12-16T21:38:31.604Z,-2.00
2018-12-16T21:40:58.298Z,-2.00
2018-12-16T21:43:25.002Z,-2.00
2018-12-16T21:45:51.699Z,-2.00
2018-12-16T21:48:20.306Z,-2.00
2018-12-16T21:50:53.992Z,-2.00
2018-12-16T21:53:20.927Z,-2.00
2018-12-16T21:55:47.624Z,-2.00
2018-12-16T21:58:14.321Z,-2.10
2018-12-16T22:00:41.010Z,-2.00
2018-12-16T22:03:07.723Z,-2.00
2018-12-16T22:05:34.641Z,-2.00
2018-12-16T22:08:01.487Z,-2.00
2018-12-16T22:10:28.474Z,-2.00
2018-12-16T22:12:55.184Z,-2.00
2018-12-16T22:15:21.873Z,-2.00
2018-12-16T22:17:48.867Z,-2.00
2018-12-16T22:20:15.559Z,-2.00
2018-12-16T22:22:42.258Z,-2.00
2018-12-16T22:25:08.968Z,-2.00
2018-12-16T22:27:40.148Z,-2.00
2018-12-16T22:30:04.515Z,-2.00
2018-12-16T22:32:31.218Z,-2.00
2018-12-16T22:34:57.967Z,-2.00
2018-12-16T22:37:24.771Z,-2.00
2018-12-16T22:39:51.472Z,-2.00
2018-12-16T22:42:18.174Z,-1.90
2018-12-16T22:44:44.878Z,-1.90
2018-12-16T22:47:11.580Z,-1.90
2018-12-16T22:49:38.283Z,-1.90
2018-12-16T22:52:04.988Z,-2.00
2018-12-16T22:54:31.699Z,-1.90
2018-12-16T22:56:58.395Z,-1.90
2018-12-16T22:59:25.099Z,-1.90
2018-12-16T23:01:51.870Z,-1.80
2018-12-16T23:04:18.578Z,-1.90
2018-12-16T23:06:45.286Z,-1.90
2018-12-16T23:09:11.990Z,-1.80
2018-12-16T23:11:38.802Z,-1.80
2018-12-16T23:14:05.513Z,-1.80
2018-12-16T23:16:32.511Z,-1.80
2018-12-16T23:18:59.215Z,-1.80
2018-12-16T23:21:25.921Z,-1.70
2018-12-16T23:23:52.618Z,-1.70
2018-12-16T23:26:19.455Z,-1.70
2018-12-16T23:28:46.156Z,-1.60
2018-12-16T23:31:12.842Z,-1.60
2018-12-16T23:33:39.550Z,-1.60
2018-12-16T23:36:06.358Z,-1.60
2018-12-16T23:38:33.059Z,-1.60
2018-12-16T23:40:59.758Z,-1.60
2018-12-16T23:43:26.451Z,-1.60
2018-12-16T23:45:53.159Z,-1.60
2018-12-16T23:48:19.865Z,-1.60
2018-12-16T23:50:46.568Z,-1.60
2018-12-16T23:53:13.262Z,-1.60
2018-12-16T23:55:39.966Z,-1.60
2018-12-16T23:58:06.664Z,-1.50
